createdAt,value
2023-04-09T00:02:03.438Z,4.27
2023-04-09T00:04:31.027Z,4.24
2023-04-09T00:06:57.940Z,4.29
2023-04-09T00:09:24.837Z,4.29
2023-04-09T00:11:51.677Z,4.26
2023-04-09T00:14:18.679Z,4.25
2023-04-09T00:16:45.812Z,4.23
2023-04-09T00:19:13.200Z,4.21
2023-04-09T00:21:40.328Z,4.19
2023-04-09T00:24:07.136Z,4.17
2023-04-09T00:26:34.057Z,4.12
2023-04-09T00:29:01.103Z,4.04
2023-04-09T00:31:28.205Z,3.98
2023-04-09T00:33:55.837Z,3.93
2023-04-09T00:36:23.786Z,3.86
2023-04-09T00:38:53.581Z,3.78
2023-04-09T00:41:20.789Z,3.71
2023-04-09T00:43:47.669Z,3.64
2023-04-09T00:46:15.585Z,3.57
2023-04-09T00:48:42.944Z,3.53
2023-04-09T00:51:09.986Z,3.47
2023-04-09T00:53:36.798Z,3.41
2023-04-09T00:56:04.221Z,3.36
2023-04-09T00:58:31.263Z,3.30
2023-04-09T01:00:58.357Z,3.24
2023-04-09T01:03:25.575Z,3.18
2023-04-09T01:06:12.764Z,3.12
2023-04-09T01:08:39.838Z,3.04
2023-04-09T01:11:26.058Z,2.98
2023-04-09T01:13:57.990Z,2.91
2023-04-09T01:16:25.422Z,2.84
2023-04-09T01:18:56.393Z,2.78
2023-04-09T01:21:26.976Z,2.73
2023-04-09T01:24:03.083Z,2.71
2023-04-09T01:26:44.330Z,2.69
2023-04-09T01:29:11.943Z,2.66
2023-04-09T01:31:39.876Z,2.63
2023-04-09T01:34:08.311Z,2.63
2023-04-09T01:36:35.435Z,2.62
2023-04-09T01:39:02.758Z,2.62
2023-04-09T01:41:32.012Z,2.63
2023-04-09T01:44:01.260Z,2.63
2023-04-09T01:46:28.641Z,2.65
2023-04-09T01:48:56.439Z,2.67
2023-04-09T01:51:23.824Z,2.69
2023-04-09T01:53:50.745Z,2.72
2023-04-09T01:56:17.805Z,2.75
2023-04-09T01:58:44.957Z,2.77
2023-04-09T02:01:22.330Z,2.79
2023-04-09T02:03:58.213Z,2.81
2023-04-09T02:06:29.654Z,2.83
2023-04-09T02:08:57.737Z,2.87
2023-04-09T02:11:26.231Z,2.90
2023-04-09T02:13:54.088Z,2.92
2023-04-09T02:16:21.390Z,2.94
2023-04-09T02:18:52.735Z,2.96
2023-04-09T02:21:19.845Z,2.95
2023-04-09T02:23:46.912Z,2.92
2023-04-09T02:26:13.961Z,2.92
2023-04-09T02:28:41.070Z,2.94
2023-04-09T02:31:08.595Z,2.94
2023-04-09T02:33:35.936Z,2.93
2023-04-09T02:36:03.033Z,2.97
2023-04-09T02:38:30.804Z,2.98
2023-04-09T02:40:57.894Z,2.99
2023-04-09T02:43:24.786Z,2.99
2023-04-09T02:45:51.714Z,3.00
2023-04-09T02:48:19.422Z,3.02
2023-04-09T02:50:46.233Z,3.03
2023-04-09T02:53:13.067Z,3.05
2023-04-09T02:55:40.053Z,3.08
2023-04-09T02:58:06.976Z,3.10
2023-04-09T03:00:34.135Z,3.12
2023-04-09T03:03:01.445Z,3.11
2023-04-09T03:05:28.603Z,3.10
2023-04-09T03:07:55.579Z,3.10
2023-04-09T03:10:22.556Z,3.11
2023-04-09T03:12:49.817Z,3.11
2023-04-09T03:15:16.700Z,3.13
2023-04-09T03:17:43.747Z,3.14
2023-04-09T03:20:10.868Z,3.15
2023-04-09T03:22:39.783Z,3.17
2023-04-09T03:25:20.281Z,3.18
2023-04-09T03:27:47.791Z,3.19
2023-04-09T03:30:16.476Z,3.19
2023-04-09T03:32:44.405Z,3.20
2023-04-09T03:35:12.227Z,3.19
2023-04-09T03:37:40.147Z,3.19
2023-04-09T03:40:08.177Z,3.19
2023-04-09T03:42:35.741Z,3.20
2023-04-09T03:45:06.160Z,3.20
2023-04-09T03:47:37.859Z,3.21
2023-04-09T03:50:05.438Z,3.20
2023-04-09T03:52:42.386Z,3.20
2023-04-09T03:55:09.687Z,3.19
2023-04-09T03:57:36.924Z,3.19
2023-04-09T04:00:05.114Z,3.17
2023-04-09T04:02:51.068Z,3.15
2023-04-09T04:05:24.854Z,3.14
2023-04-09T04:07:52.352Z,3.15
2023-04-09T04:10:25.265Z,3.16
2023-04-09T04:12:52.155Z,3.17
2023-04-09T04:15:42.500Z,3.19
2023-04-09T04:18:10.330Z,3.20
2023-04-09T04:20:51.157Z,3.21
2023-04-09T04:23:18.000Z,3.23
2023-04-09T04:25:52.642Z,3.24
2023-04-09T04:28:24.586Z,3.26
2023-04-09T04:30:51.424Z,3.29
2023-04-09T04:33:18.547Z,3.32
2023-04-09T04:35:50.102Z,3.36
2023-04-09T04:38:34.415Z,3.39
2023-04-09T04:41:03.740Z,3.42
2023-04-09T04:43:31.900Z,3.46
2023-04-09T04:45:59.423Z,3.50
2023-04-09T04:48:28.352Z,3.55
2023-04-09T04:50:56.482Z,3.58
2023-04-09T04:53:24.305Z,3.63
2023-04-09T04:55:51.680Z,3.67
2023-04-09T04:58:22.680Z,3.72
2023-04-09T05:00:53.448Z,3.79
2023-04-09T05:03:20.782Z,3.83
2023-04-09T05:05:56.429Z,3.88
2023-04-09T05:08:24.012Z,3.95
2023-04-09T05:10:55.468Z,4.03
2023-04-09T05:13:23.468Z,4.12
2023-04-09T05:15:51.219Z,4.21
2023-04-09T05:18:18.670Z,4.29
2023-04-09T05:20:45.452Z,4.38
2023-04-09T05:23:12.575Z,4.46
2023-04-09T05:25:47.927Z,4.54
2023-04-09T05:28:21.760Z,4.64
2023-04-09T05:30:51.898Z,4.73
2023-04-09T05:33:19.216Z,4.83
2023-04-09T05:35:46.258Z,4.93
2023-04-09T05:38:13.585Z,5.04
2023-04-09T05:40:41.887Z,5.15
2023-04-09T05:43:11.576Z,5.25
2023-04-09T05:45:41.331Z,5.37
2023-04-09T05:48:08.567Z,5.48
2023-04-09T05:50:47.153Z,5.60
2023-04-09T05:53:21.169Z,5.73
2023-04-09T05:55:51.252Z,5.86
2023-04-09T05:58:19.961Z,5.99
2023-04-09T06:00:47.169Z,6.14
2023-04-09T06:03:14.145Z,6.28
2023-04-09T06:05:41.325Z,6.42
2023-04-09T06:08:08.161Z,6.56
2023-04-09T06:10:35.170Z,6.67
2023-04-09T06:13:02.230Z,6.79
2023-04-09T06:15:30.108Z,6.92
2023-04-09T06:17:59.323Z,7.06
2023-04-09T06:20:26.472Z,7.16
2023-04-09T06:22:53.397Z,7.23
2023-04-09T06:25:20.449Z,7.29
2023-04-09T06:27:47.330Z,7.36
2023-04-09T06:30:14.256Z,7.44
2023-04-09T06:32:53.097Z,7.48
2023-04-09T06:35:21.601Z,7.53
2023-04-09T06:37:48.467Z,7.58
2023-04-09T06:40:15.581Z,7.64
2023-04-09T06:42:42.466Z,7.74
2023-04-09T06:45:20.637Z,7.84
2023-04-09T06:47:47.816Z,7.94
2023-04-09T06:50:14.889Z,8.07
2023-04-09T06:52:41.759Z,8.23
2023-04-09T06:55:08.779Z,8.34
2023-04-09T06:57:35.832Z,8.44
2023-04-09T07:00:03.266Z,8.57
2023-04-09T07:02:30.490Z,8.66
2023-04-09T07:04:57.496Z,8.79
2023-04-09T07:07:25.643Z,8.91
2023-04-09T07:09:53.168Z,8.97
2023-04-09T07:12:30.508Z,9.05
2023-04-09T07:15:01.472Z,9.11
2023-04-09T07:17:28.660Z,9.18
2023-04-09T07:19:55.956Z,9.29
2023-04-09T07:22:23.692Z,9.44
2023-04-09T07:24:53.109Z,9.63
2023-04-09T07:27:27.009Z,9.78
2023-04-09T07:29:54.842Z,9.82
2023-04-09T07:32:21.805Z,9.83
2023-04-09T07:34:50.641Z,9.82
2023-04-09T07:37:17.590Z,9.82
2023-04-09T07:39:44.773Z,9.83
2023-04-09T07:42:12.004Z,9.79
2023-04-09T07:44:39.140Z,9.83
2023-04-09T07:47:06.989Z,9.82
2023-04-09T07:49:35.350Z,9.77
2023-04-09T07:52:03.001Z,9.69
2023-04-09T07:54:31.219Z,9.64
2023-04-09T07:56:58.559Z,9.52
2023-04-09T07:59:27.062Z,9.46
2023-04-09T08:01:54.018Z,9.40
2023-04-09T08:04:21.462Z,9.33
2023-04-09T08:06:51.392Z,9.26
2023-04-09T08:09:18.448Z,9.24
2023-04-09T08:11:45.806Z,9.25
2023-04-09T08:14:13.602Z,9.27
2023-04-09T08:16:41.330Z,9.34
2023-04-09T08:19:08.676Z,9.43
2023-04-09T08:21:45.586Z,9.52
2023-04-09T08:24:12.622Z,9.58
2023-04-09T08:26:40.184Z,9.64
2023-04-09T08:29:07.558Z,9.80
2023-04-09T08:31:36.043Z,10.01
2023-04-09T08:34:03.272Z,10.16
2023-04-09T08:36:32.015Z,10.31
2023-04-09T08:39:00.002Z,10.52
2023-04-09T08:41:30.760Z,10.69
2023-04-09T08:43:59.319Z,10.84
2023-04-09T08:46:27.129Z,10.93
2023-04-09T08:48:54.733Z,11.00
2023-04-09T08:51:22.934Z,11.06
2023-04-09T08:53:56.526Z,11.17
2023-04-09T08:56:23.691Z,11.27
2023-04-09T08:58:51.076Z,11.41
2023-04-09T09:01:36.222Z,11.62
2023-04-09T09:04:04.646Z,11.75
2023-04-09T09:06:33.494Z,11.83
2023-04-09T09:09:01.982Z,11.95
2023-04-09T09:11:29.878Z,12.04
2023-04-09T09:13:57.666Z,12.15
2023-04-09T09:16:24.604Z,12.22
2023-04-09T09:18:53.334Z,12.32
2023-04-09T09:21:21.174Z,12.43
2023-04-09T09:23:50.039Z,12.44
2023-04-09T09:26:24.065Z,12.47
2023-04-09T09:28:51.601Z,12.55
2023-04-09T09:31:19.898Z,12.76
2023-04-09T09:33:47.764Z,12.94
2023-04-09T09:36:33.480Z,12.97
2023-04-09T09:39:09.190Z,13.07
2023-04-09T09:41:36.477Z,13.37
2023-04-09T09:44:06.530Z,13.62
2023-04-09T09:46:38.170Z,13.55
2023-04-09T09:49:05.730Z,13.67
2023-04-09T09:51:33.562Z,14.25
2023-04-09T09:54:01.153Z,15.05
2023-04-09T09:56:33.068Z,14.91
2023-04-09T09:59:18.464Z,15.17
2023-04-09T10:01:46.800Z,15.52
2023-04-09T10:04:14.561Z,15.73
2023-04-09T10:06:43.230Z,15.80
2023-04-09T10:09:11.333Z,15.55
2023-04-09T10:11:42.047Z,15.75
2023-04-09T10:14:09.508Z,15.97
2023-04-09T10:16:36.676Z,15.95
2023-04-09T10:19:04.149Z,16.06
2023-04-09T10:21:43.179Z,16.24
2023-04-09T10:24:10.315Z,16.42
2023-04-09T10:26:40.638Z,16.45
2023-04-09T10:29:13.967Z,16.05
2023-04-09T10:31:49.383Z,15.71
2023-04-09T10:34:18.434Z,15.85
2023-04-09T10:36:53.198Z,15.91
2023-04-09T10:39:20.257Z,15.73
2023-04-09T10:41:48.961Z,15.69
2023-04-09T10:44:26.637Z,15.52
2023-04-09T10:46:57.266Z,15.45
2023-04-09T10:49:25.383Z,15.51
2023-04-09T10:52:05.859Z,15.44
2023-04-09T10:54:33.030Z,15.32
2023-04-09T10:57:16.096Z,15.17
2023-04-09T10:59:53.368Z,15.07
2023-04-09T11:02:33.514Z,15.18
2023-04-09T11:05:03.587Z,15.45
2023-04-09T11:07:32.644Z,15.64
2023-04-09T11:10:00.005Z,15.59
2023-04-09T11:12:27.059Z,15.72
2023-04-09T11:14:53.935Z,15.58
2023-04-09T11:17:20.802Z,15.17
2023-04-09T11:19:48.024Z,15.03
2023-04-09T11:22:14.923Z,15.07
2023-04-09T11:24:41.807Z,15.05
2023-04-09T11:27:08.963Z,14.93
2023-04-09T11:29:36.339Z,14.95
2023-04-09T11:32:06.647Z,14.82
2023-04-09T11:34:33.628Z,14.64
2023-04-09T11:37:04.846Z,14.56
2023-04-09T11:39:31.696Z,14.67
2023-04-09T11:41:58.751Z,14.79
2023-04-09T11:44:25.799Z,14.99
2023-04-09T11:46:52.776Z,14.95
2023-04-09T11:49:20.523Z,14.94
2023-04-09T11:51:47.677Z,15.06
2023-04-09T11:54:14.955Z,15.21
2023-04-09T11:56:42.518Z,15.13
2023-04-09T11:59:10.180Z,14.91
2023-04-09T12:01:37.153Z,14.94
2023-04-09T12:04:06.456Z,15.11
2023-04-09T12:06:39.720Z,15.36
2023-04-09T12:09:08.211Z,15.47
2023-04-09T12:11:36.722Z,15.37
2023-04-09T12:14:04.461Z,15.14
2023-04-09T12:16:32.239Z,14.89
2023-04-09T12:19:08.908Z,14.86
2023-04-09T12:21:58.061Z,14.75
2023-04-09T12:24:25.522Z,14.65
2023-04-09T12:26:52.575Z,14.63
2023-04-09T12:29:20.379Z,14.52
2023-04-09T12:31:47.343Z,14.31
2023-04-09T12:34:14.574Z,14.09
2023-04-09T12:36:42.019Z,13.92
2023-04-09T12:39:09.376Z,13.78
2023-04-09T12:41:36.735Z,13.65
2023-04-09T12:44:04.713Z,13.63
2023-04-09T12:46:31.893Z,13.60
2023-04-09T12:48:59.023Z,13.52
2023-04-09T12:51:25.979Z,13.47
2023-04-09T12:53:53.176Z,13.53
2023-04-09T12:56:20.394Z,13.66
2023-04-09T12:58:47.537Z,13.75
2023-04-09T13:01:14.746Z,13.75
2023-04-09T13:03:42.042Z,13.70
2023-04-09T13:06:09.312Z,13.65
2023-04-09T13:08:36.273Z,13.66
2023-04-09T13:11:03.930Z,13.61
2023-04-09T13:13:31.086Z,13.67
2023-04-09T13:15:58.037Z,13.79
2023-04-09T13:18:25.200Z,13.85
2023-04-09T13:20:52.143Z,13.86
2023-04-09T13:23:19.097Z,13.81
2023-04-09T13:25:46.146Z,13.61
2023-04-09T13:28:13.003Z,13.53
2023-04-09T13:30:40.281Z,13.43
2023-04-09T13:33:07.268Z,13.41
2023-04-09T13:35:34.507Z,13.25
2023-04-09T13:38:01.745Z,13.14
2023-04-09T13:40:28.882Z,13.06
2023-04-09T13:42:55.722Z,13.05
2023-04-09T13:45:23.492Z,13.09
2023-04-09T13:47:50.565Z,13.17
2023-04-09T13:50:17.817Z,13.21
2023-04-09T13:52:44.960Z,13.21
2023-04-09T13:55:11.924Z,13.26
2023-04-09T13:57:38.972Z,13.37
2023-04-09T14:00:06.941Z,13.44
2023-04-09T14:02:34.279Z,13.43
2023-04-09T14:05:03.305Z,13.51
2023-04-09T14:07:30.548Z,13.51
2023-04-09T14:09:57.713Z,13.46
2023-04-09T14:12:24.863Z,13.43
2023-04-09T14:14:51.710Z,13.39
2023-04-09T14:17:18.762Z,13.43
2023-04-09T14:19:45.720Z,13.46
2023-04-09T14:22:12.813Z,13.43
2023-04-09T14:24:40.236Z,13.40
2023-04-09T14:27:07.694Z,13.29
2023-04-09T14:29:34.850Z,13.32
2023-04-09T14:32:01.897Z,13.37
2023-04-09T14:34:30.692Z,13.40
2023-04-09T14:36:57.640Z,13.47
2023-04-09T14:39:25.208Z,13.46
2023-04-09T14:41:52.164Z,13.45
2023-04-09T14:44:19.633Z,13.42
2023-04-09T14:46:46.607Z,13.29
2023-04-09T14:49:13.740Z,13.21
2023-04-09T14:51:40.784Z,13.23
2023-04-09T14:54:07.806Z,13.23
2023-04-09T14:56:34.992Z,13.28
2023-04-09T14:59:02.047Z,13.31
2023-04-09T15:01:29.703Z,13.33
2023-04-09T15:03:57.765Z,13.35
2023-04-09T15:06:25.865Z,13.40
2023-04-09T15:08:53.268Z,13.47
2023-04-09T15:11:22.328Z,13.57
2023-04-09T15:13:49.380Z,13.68
2023-04-09T15:16:23.524Z,13.73
2023-04-09T15:18:51.740Z,13.71
2023-04-09T15:21:19.133Z,13.73
2023-04-09T15:23:46.192Z,13.76
2023-04-09T15:26:13.343Z,13.74
2023-04-09T15:28:40.702Z,13.72
2023-04-09T15:31:07.879Z,13.84
2023-04-09T15:33:35.010Z,13.97
2023-04-09T15:36:02.304Z,14.01
2023-04-09T15:38:29.628Z,14.07
2023-04-09T15:40:56.788Z,14.13
2023-04-09T15:43:23.838Z,14.14
2023-04-09T15:45:50.930Z,14.10
2023-04-09T15:48:18.862Z,14.05
2023-04-09T15:50:46.323Z,14.03
2023-04-09T15:53:14.707Z,13.99
2023-04-09T15:55:42.173Z,13.97
2023-04-09T15:58:09.228Z,13.94
2023-04-09T16:00:36.114Z,13.90
2023-04-09T16:03:03.239Z,13.74
2023-04-09T16:05:30.343Z,13.51
2023-04-09T16:07:59.713Z,13.24
2023-04-09T16:10:26.965Z,13.04
2023-04-09T16:12:53.800Z,12.84
2023-04-09T16:15:21.264Z,12.65
2023-04-09T16:17:48.273Z,12.41
2023-04-09T16:20:15.272Z,12.26
2023-04-09T16:22:42.111Z,12.10
2023-04-09T16:25:09.289Z,11.95
2023-04-09T16:27:36.152Z,11.76
2023-04-09T16:30:03.352Z,11.62
2023-04-09T16:32:30.257Z,11.49
2023-04-09T16:35:00.118Z,11.36
2023-04-09T16:37:27.509Z,11.24
2023-04-09T16:39:56.253Z,11.14
2023-04-09T16:42:23.550Z,11.00
2023-04-09T16:44:50.517Z,10.92
2023-04-09T16:47:17.454Z,10.84
2023-04-09T16:49:44.513Z,10.78
2023-04-09T16:52:11.657Z,10.73
2023-04-09T16:54:38.711Z,10.66
2023-04-09T16:57:05.762Z,10.59
2023-04-09T16:59:32.714Z,10.49
2023-04-09T17:01:59.722Z,10.37
2023-04-09T17:04:27.140Z,10.25
2023-04-09T17:06:54.286Z,10.14
2023-04-09T17:09:21.472Z,10.03
2023-04-09T17:11:48.696Z,9.92
2023-04-09T17:14:15.750Z,9.80
2023-04-09T17:16:43.748Z,9.66
2023-04-09T17:19:10.981Z,9.55
2023-04-09T17:21:37.932Z,9.44
2023-04-09T17:24:05.393Z,9.29
2023-04-09T17:26:32.344Z,9.13
2023-04-09T17:28:59.295Z,9.01
2023-04-09T17:31:27.339Z,8.90
2023-04-09T17:33:54.429Z,8.82
2023-04-09T17:36:22.425Z,8.74
2023-04-09T17:38:52.252Z,8.66
2023-04-09T17:41:19.328Z,8.53
2023-04-09T17:43:46.284Z,8.44
2023-04-09T17:46:13.843Z,8.35
2023-04-09T17:48:41.193Z,8.26
2023-04-09T17:51:08.184Z,8.16
2023-04-09T17:53:35.012Z,8.09
2023-04-09T17:56:03.449Z,8.00
2023-04-09T17:58:30.383Z,7.91
2023-04-09T18:00:59.001Z,7.83
2023-04-09T18:03:26.201Z,7.72
2023-04-09T18:05:53.671Z,7.63
2023-04-09T18:08:20.655Z,7.54
2023-04-09T18:10:58.607Z,7.45
2023-04-09T18:13:36.053Z,7.36
2023-04-09T18:16:03.089Z,7.29
2023-04-09T18:18:30.032Z,7.21
2023-04-09T18:20:56.886Z,7.12
2023-04-09T18:23:26.564Z,7.03
2023-04-09T18:25:53.339Z,6.94
2023-04-09T18:28:20.288Z,6.87
2023-04-09T18:30:47.142Z,6.82
2023-04-09T18:33:13.965Z,6.76
2023-04-09T18:35:41.003Z,6.69
2023-04-09T18:38:07.899Z,6.64
2023-04-09T18:40:42.415Z,6.59
2023-04-09T18:43:11.976Z,6.52
2023-04-09T18:45:42.023Z,6.49
2023-04-09T18:48:09.049Z,6.46
2023-04-09T18:50:36.069Z,6.45
2023-04-09T18:53:05.515Z,6.42
2023-04-09T18:55:35.300Z,6.40
2023-04-09T18:58:03.017Z,6.36
2023-04-09T19:00:29.924Z,6.31
2023-04-09T19:02:57.014Z,6.26
2023-04-09T19:05:24.138Z,6.21
2023-04-09T19:07:50.974Z,6.16
2023-04-09T19:10:17.962Z,6.09
2023-04-09T19:12:50.417Z,5.98
2023-04-09T19:15:17.200Z,5.87
2023-04-09T19:17:44.343Z,5.74
2023-04-09T19:20:11.411Z,5.63
2023-04-09T19:22:40.895Z,5.54
2023-04-09T19:25:09.367Z,5.44
2023-04-09T19:27:37.124Z,5.32
2023-04-09T19:30:04.762Z,5.24
2023-04-09T19:32:31.609Z,5.13
2023-04-09T19:34:58.464Z,4.98
2023-04-09T19:37:27.447Z,4.88
2023-04-09T19:39:54.704Z,4.81
2023-04-09T19:42:21.479Z,4.75
2023-04-09T19:44:48.557Z,4.65
2023-04-09T19:47:15.867Z,4.58
2023-04-09T19:49:43.353Z,4.49
2023-04-09T19:52:10.698Z,4.41
2023-04-09T19:54:37.867Z,4.32
2023-04-09T19:57:05.105Z,4.25
2023-04-09T19:59:35.846Z,4.17
2023-04-09T20:02:02.977Z,4.13
2023-04-09T20:04:30.681Z,4.04
2023-04-09T20:06:57.722Z,3.98
2023-04-09T20:09:27.230Z,3.94
2023-04-09T20:11:54.593Z,3.89
2023-04-09T20:14:21.539Z,3.85
2023-04-09T20:16:48.769Z,3.79
2023-04-09T20:19:16.060Z,3.73
2023-04-09T20:21:43.317Z,3.69
2023-04-09T20:24:10.986Z,3.66
2023-04-09T20:26:37.830Z,3.62
2023-04-09T20:29:04.678Z,3.55
2023-04-09T20:31:34.412Z,3.49
2023-04-09T20:34:02.059Z,3.42
2023-04-09T20:36:29.053Z,3.36
2023-04-09T20:38:56.155Z,3.31
2023-04-09T20:41:23.221Z,3.27
2023-04-09T20:43:50.172Z,3.23
2023-04-09T20:46:17.147Z,3.18
2023-04-09T20:48:44.175Z,3.10
2023-04-09T20:51:11.313Z,3.06
2023-04-09T20:53:38.379Z,2.99
2023-04-09T20:56:05.841Z,2.92
2023-04-09T20:58:33.016Z,2.88
2023-04-09T21:01:07.236Z,2.83
2023-04-09T21:03:35.394Z,2.75
2023-04-09T21:06:02.748Z,2.69
2023-04-09T21:08:30.421Z,2.65
2023-04-09T21:10:57.622Z,2.62
2023-04-09T21:13:24.770Z,2.59
2023-04-09T21:15:51.789Z,2.57
2023-04-09T21:18:19.247Z,2.51
2023-04-09T21:20:46.299Z,2.47
2023-04-09T21:23:13.358Z,2.44
2023-04-09T21:25:40.510Z,2.40
2023-04-09T21:28:08.081Z,2.36
2023-04-09T21:30:37.109Z,2.31
2023-04-09T21:33:05.107Z,2.27
2023-04-09T21:35:32.776Z,2.23
2023-04-09T21:38:00.085Z,2.20
2023-04-09T21:40:26.976Z,2.20
2023-04-09T21:42:53.889Z,2.22
2023-04-09T21:45:21.554Z,2.24
2023-04-09T21:47:48.748Z,2.27
2023-04-09T21:50:16.162Z,2.29
2023-04-09T21:52:44.343Z,2.30
2023-04-09T21:55:11.398Z,2.30
2023-04-09T21:57:38.346Z,2.33
2023-04-09T22:00:05.830Z,2.32
2023-04-09T22:02:34.355Z,2.28
2023-04-09T22:05:01.470Z,2.26
2023-04-09T22:07:29.140Z,2.26
2023-04-09T22:09:56.889Z,2.27
2023-04-09T22:12:23.940Z,2.30
2023-04-09T22:14:51.918Z,2.33
2023-04-09T22:17:19.103Z,2.38
2023-04-09T22:19:46.225Z,2.42
2023-04-09T22:22:14.606Z,2.45
2023-04-09T22:24:42.583Z,2.48
2023-04-09T22:27:09.649Z,2.51
2023-04-09T22:29:37.506Z,2.55
2023-04-09T22:32:04.865Z,2.56
2023-04-09T22:34:31.814Z,2.58
2023-04-09T22:36:58.765Z,2.58
2023-04-09T22:39:26.123Z,2.58
2023-04-09T22:41:53.201Z,2.58
2023-04-09T22:44:20.352Z,2.58
2023-04-09T22:46:47.458Z,2.60
2023-04-09T22:49:14.543Z,2.61
2023-04-09T22:51:42.207Z,2.63
2023-04-09T22:54:09.161Z,2.63
2023-04-09T22:56:36.208Z,2.63
2023-04-09T22:59:03.573Z,2.62
2023-04-09T23:01:30.949Z,2.61
2023-04-09T23:03:58.184Z,2.61
2023-04-09T23:06:25.770Z,2.60
2023-04-09T23:08:53.130Z,2.57
2023-04-09T23:11:20.777Z,2.56
2023-04-09T23:13:47.642Z,2.53
2023-04-09T23:16:15.045Z,2.51
2023-04-09T23:18:42.039Z,2.49
2023-04-09T23:21:10.124Z,2.48
2023-04-09T23:23:38.128Z,2.48
2023-04-09T23:26:05.545Z,2.48
2023-04-09T23:28:32.729Z,2.48
2023-04-09T23:31:00.040Z,2.47
2023-04-09T23:33:27.056Z,2.46
2023-04-09T23:35:54.276Z,2.42
2023-04-09T23:38:21.336Z,2.38
2023-04-09T23:40:48.643Z,2.35
2023-04-09T23:43:15.842Z,2.26
2023-04-09T23:45:43.634Z,2.18
2023-04-09T23:48:11.467Z,2.10
2023-04-09T23:50:39.152Z,2.04
2023-04-09T23:53:06.208Z,1.98
2023-04-09T23:55:37.322Z,1.90
2023-04-09T23:58:04.948Z,1.85
